Time,TemperatureF,DewpointF,PressureIn,WindDirection,WindDirectionDegrees,WindSpeedMPH,WindSpeedGustMPH,Humidity,HourlyPrecipIn,Conditions,Clouds,dailyrainin,SoftwareType,DateUTC
2013-01-09 00:02:00,23.0,11.0,-100.00,West,280,9.0,11.0,58,-99.99,,,-99.99,,2013-01-09 07:02:00,
2013-01-09 00:12:00,23.0,11.0,-100.00,West,280,9.0,11.0,58,-99.99,,,-99.99,,2013-01-09 07:12:00,
2013-01-09 00:22:00,23.0,11.0,-100.00,West,270,9.0,11.0,60,-99.99,,,-99.99,,2013-01-09 07:22:00,
2013-01-09 00:32:00,24.0,12.0,-100.00,West,275,14.0,17.0,60,-99.99,,,-99.99,,2013-01-09 07:32:00,
2013-01-09 00:42:00,24.0,12.0,-100.00,West,265,15.0,17.0,58,-99.99,,,-99.99,,2013-01-09 07:42:00,
2013-01-09 00:52:00,24.0,12.0,-100.00,West,265,15.0,17.0,58,-99.99,,,-99.99,,2013-01-09 07:52:00,
2013-01-09 01:02:00,21.0,10.0,-100.00,WSW,255,10.0,12.0,60,-99.99,,,-99.99,,2013-01-09 08:02:00,
2013-01-09 01:12:00,21.0,10.0,-100.00,WSW,255,10.0,12.0,60,-99.99,,,-99.99,,2013-01-09 08:12:00,
2013-01-09 01:22:00,21.0,10.0,-100.00,West,260,11.0,12.0,62,-99.99,,,-99.99,,2013-01-09 08:22:00,
2013-01-09 01:32:00,22.0,11.0,-100.00,West,265,9.0,11.0,61,-99.99,,,-99.99,,2013-01-09 08:32:00,
2013-01-09 01:42:00,22.0,10.0,-100.00,WSW,255,9.0,12.0,60,-99.99,,,-99.99,,2013-01-09 08:42:00,
2013-01-09 01:53:00,22.0,10.0,-100.00,WSW,255,9.0,12.0,60,-99.99,,,-99.99,,2013-01-09 08:53:00,
2013-01-09 02:02:00,19.0,9.0,-100.00,SW,235,10.0,11.0,63,-99.99,,,-99.99,,2013-01-09 09:02:00,
2013-01-09 02:12:00,19.0,9.0,-100.00,SW,235,10.0,11.0,63,-99.99,,,-99.99,,2013-01-09 09:12:00,
2013-01-09 02:22:00,20.0,10.0,-100.00,WSW,240,8.0,10.0,63,-99.99,,,-99.99,,2013-01-09 09:22:00,
2013-01-09 02:32:00,19.0,8.0,-100.00,SW,230,9.0,9.0,63,-99.99,,,-99.99,,2013-01-09 09:32:00,
2013-01-09 02:42:00,19.0,9.0,-100.00,WSW,240,10.0,11.0,63,-99.99,,,-99.99,,2013-01-09 09:42:00,
2013-01-09 02:53:00,19.0,9.0,-100.00,WSW,240,10.0,11.0,63,-99.99,,,-99.99,,2013-01-09 09:53:00,
2013-01-09 03:02:00,19.0,9.0,-100.00,West,260,7.0,9.0,63,-99.99,,,-99.99,,2013-01-09 10:02:00,
2013-01-09 03:12:00,19.0,9.0,-100.00,West,260,7.0,9.0,63,-99.99,,,-99.99,,2013-01-09 10:12:00,
2013-01-09 03:22:00,19.0,9.0,-100.00,SW,235,10.0,11.0,63,-99.99,,,-99.99,,2013-01-09 10:22:00,
2013-01-09 03:32:00,19.0,8.0,-100.00,SW,220,10.0,13.0,63,-99.99,,,-99.99,,2013-01-09 10:32:00,
2013-01-09 03:42:00,18.0,8.0,-100.00,SW,225,7.0,9.0,63,-99.99,,,-99.99,,2013-01-09 10:42:00,
2013-01-09 03:52:00,18.0,8.0,-100.00,SW,225,7.0,9.0,63,-99.99,,,-99.99,,2013-01-09 10:52:00,
2013-01-09 04:02:00,21.0,10.0,-100.00,SW,230,10.0,12.0,62,-99.99,,,-99.99,,2013-01-09 11:02:00,
2013-01-09 04:12:00,21.0,10.0,-100.00,SW,230,10.0,12.0,62,-99.99,,,-99.99,,2013-01-09 11:12:00,
2013-01-09 04:22:00,21.0,10.0,-100.00,SW,225,10.0,11.0,62,-99.99,,,-99.99,,2013-01-09 11:22:00,
2013-01-09 04:32:00,22.0,11.0,-100.00,SSW,205,6.0,9.0,62,-99.99,,,-99.99,,2013-01-09 11:32:00,
2013-01-09 04:42:00,22.0,11.0,-100.00,South,170,3.0,6.0,62,-99.99,,,-99.99,,2013-01-09 11:42:00,
2013-01-09 04:53:00,22.0,11.0,-100.00,South,170,3.0,6.0,62,-99.99,,,-99.99,,2013-01-09 11:53:00,
2013-01-09 05:03:00,22.0,11.0,-100.00,ESE,115,2.0,4.0,62,-99.99,,,-99.99,,2013-01-09 12:03:00,
2013-01-09 05:12:00,22.0,11.0,-100.00,ESE,115,2.0,4.0,62,-99.99,,,-99.99,,2013-01-09 12:12:00,
2013-01-09 05:23:00,22.0,12.0,-100.00,SE,145,2.0,4.0,63,-99.99,,,-99.99,,2013-01-09 12:23:00,
2013-01-09 05:33:00,23.0,13.0,-100.00,East,95,1.0,4.0,63,-99.99,,,-99.99,,2013-01-09 12:33:00,
2013-01-09 05:43:00,23.0,13.0,-100.00,South,175,1.0,3.0,63,-99.99,,,-99.99,,2013-01-09 12:43:00,
2013-01-09 05:53:00,23.0,13.0,-100.00,South,175,1.0,3.0,63,-99.99,,,-99.99,,2013-01-09 12:53:00,
2013-01-09 06:02:00,24.0,13.0,-100.00,SSW,195,7.0,9.0,61,-99.99,,,-99.99,,2013-01-09 13:02:00,
2013-01-09 06:12:00,24.0,13.0,-100.00,SSW,195,7.0,9.0,61,-99.99,,,-99.99,,2013-01-09 13:12:00,
2013-01-09 06:23:00,23.0,12.0,-100.00,South,185,7.0,9.0,60,-99.99,,,-99.99,,2013-01-09 13:23:00,
2013-01-09 06:33:00,20.0,10.0,-100.00,South,180,7.0,9.0,62,-99.99,,,-99.99,,2013-01-09 13:33:00,
2013-01-09 06:43:00,21.0,10.0,-100.00,South,185,9.0,11.0,62,-99.99,,,-99.99,,2013-01-09 13:43:00,
2013-01-09 06:53:00,21.0,10.0,-100.00,South,185,9.0,11.0,62,-99.99,,,-99.99,,2013-01-09 13:53:00,
2013-01-09 07:03:00,21.0,10.0,-100.00,SSE,155,3.0,7.0,62,-99.99,,,-99.99,,2013-01-09 14:03:00,
2013-01-09 07:12:00,21.0,10.0,-100.00,SSE,155,3.0,7.0,62,-99.99,,,-99.99,,2013-01-09 14:12:00,
2013-01-09 07:22:00,21.0,10.0,-100.00,SSE,155,6.0,7.0,62,-99.99,,,-99.99,,2013-01-09 14:22:00,
2013-01-09 07:33:00,20.0,9.0,-100.00,SE,145,6.0,8.0,61,-99.99,,,-99.99,,2013-01-09 14:33:00,
2013-01-09 07:43:00,22.0,11.0,-100.00,SSE,155,6.0,7.0,61,-99.99,,,-99.99,,2013-01-09 14:43:00,
2013-01-09 07:53:00,22.0,11.0,-100.00,SSE,155,6.0,7.0,61,-99.99,,,-99.99,,2013-01-09 14:53:00,
2013-01-09 08:03:00,21.0,9.0,-100.00,SSE,150,9.0,10.0,60,-99.99,,,-99.99,,2013-01-09 15:03:00,
2013-01-09 08:12:00,21.0,9.0,-100.00,SSE,150,9.0,10.0,60,-99.99,,,-99.99,,2013-01-09 15:12:00,
2013-01-09 08:23:00,21.0,9.0,-100.00,South,170,9.0,11.0,59,-99.99,,,-99.99,,2013-01-09 15:23:00,
2013-01-09 08:33:00,19.0,9.0,-100.00,SSE,155,7.0,9.0,63,-99.99,,,-99.99,,2013-01-09 15:33:00,
2013-01-09 08:42:00,19.0,9.0,-100.00,SSE,150,6.0,8.0,64,-99.99,,,-99.99,,2013-01-09 15:42:00,
2013-01-09 08:53:00,19.0,9.0,-100.00,SSE,150,6.0,8.0,64,-99.99,,,-99.99,,2013-01-09 15:53:00,
2013-01-09 09:03:00,20.0,10.0,-100.00,South,180,4.0,4.0,65,-99.99,,,-99.99,,2013-01-09 16:03:00,
2013-01-09 09:12:00,20.0,10.0,-100.00,South,180,4.0,4.0,65,-99.99,,,-99.99,,2013-01-09 16:12:00,
2013-01-09 09:23:00,23.0,13.0,-100.00,SSW,205,8.0,9.0,64,-99.99,,,-99.99,,2013-01-09 16:23:00,
2013-01-09 09:33:00,23.0,12.0,-100.00,South,170,6.0,8.0,62,-99.99,,,-99.99,,2013-01-09 16:33:00,
2013-01-09 09:43:00,28.0,16.0,-100.00,SSW,200,9.0,12.0,60,-99.99,,,-99.99,,2013-01-09 16:43:00,
2013-01-09 09:53:00,28.0,16.0,-100.00,SSW,200,9.0,12.0,60,-99.99,,,-99.99,,2013-01-09 16:53:00,
2013-01-09 10:02:00,31.0,17.0,-100.00,SW,215,8.0,11.0,54,-99.99,,,-99.99,,2013-01-09 17:02:00,
2013-01-09 10:12:00,31.0,17.0,-100.00,SW,215,8.0,11.0,54,-99.99,,,-99.99,,2013-01-09 17:12:00,
2013-01-09 10:23:00,31.0,16.0,-100.00,SSW,210,9.0,12.0,54,-99.99,,,-99.99,,2013-01-09 17:23:00,
2013-01-09 10:32:00,31.0,16.0,-100.00,SSW,200,12.0,14.0,54,-99.99,,,-99.99,,2013-01-09 17:32:00,
2013-01-09 10:43:00,30.0,16.0,-100.00,SSW,195,11.0,14.0,56,-99.99,,,-99.99,,2013-01-09 17:43:00,
2013-01-09 10:53:00,30.0,16.0,-100.00,SSW,195,11.0,14.0,56,-99.99,,,-99.99,,2013-01-09 17:53:00,
2013-01-09 11:03:00,31.0,17.0,-100.00,South,190,10.0,13.0,57,-99.99,,,-99.99,,2013-01-09 18:03:00,
2013-01-09 11:12:00,31.0,17.0,-100.00,South,190,10.0,13.0,57,-99.99,,,-99.99,,2013-01-09 18:12:00,
2013-01-09 11:24:00,31.0,17.0,-100.00,South,170,9.0,12.0,56,-99.99,,,-99.99,,2013-01-09 18:24:00,
2013-01-09 11:33:00,32.0,18.0,-100.00,SSW,195,11.0,12.0,56,-99.99,,,-99.99,,2013-01-09 18:33:00,
2013-01-09 11:43:00,33.0,18.0,-100.00,SSW,200,9.0,12.0,55,-99.99,,,-99.99,,2013-01-09 18:43:00,
2013-01-09 11:53:00,33.0,18.0,-100.00,SSW,200,9.0,12.0,55,-99.99,,,-99.99,,2013-01-09 18:53:00,
2013-01-09 12:03:00,31.0,18.0,-100.00,ESE,120,9.0,10.0,57,-99.99,,,-99.99,,2013-01-09 19:03:00,
2013-01-09 12:12:00,31.0,18.0,-100.00,ESE,120,9.0,10.0,57,-99.99,,,-99.99,,2013-01-09 19:12:00,
2013-01-09 12:23:00,32.0,19.0,-100.00,SE,135,7.0,10.0,57,-99.99,,,-99.99,,2013-01-09 19:23:00,
2013-01-09 12:33:00,34.0,19.0,-100.00,SSE,155,7.0,7.0,55,-99.99,,,-99.99,,2013-01-09 19:33:00,
2013-01-09 12:43:00,34.0,20.0,-100.00,SSE,165,6.0,7.0,55,-99.99,,,-99.99,,2013-01-09 19:43:00,
2013-01-09 12:53:00,34.0,20.0,-100.00,SSE,165,6.0,7.0,55,-99.99,,,-99.99,,2013-01-09 19:53:00,
2013-01-09 13:02:00,36.0,21.0,-100.00,SSE,150,2.0,7.0,53,-99.99,,,-99.99,,2013-01-09 20:02:00,
2013-01-09 13:12:00,36.0,21.0,-100.00,SSE,150,2.0,7.0,53,-99.99,,,-99.99,,2013-01-09 20:12:00,
2013-01-09 13:23:00,36.0,20.0,-100.00,SE,145,4.0,6.0,52,-99.99,,,-99.99,,2013-01-09 20:23:00,
2013-01-09 13:33:00,36.0,21.0,-100.00,SE,130,6.0,9.0,54,-99.99,,,-99.99,,2013-01-09 20:33:00,
2013-01-09 13:43:00,37.0,22.0,-100.00,SSE,155,4.0,6.0,53,-99.99,,,-99.99,,2013-01-09 20:43:00,
2013-01-09 13:53:00,37.0,22.0,-100.00,SSE,155,4.0,6.0,53,-99.99,,,-99.99,,2013-01-09 20:53:00,
2013-01-09 14:03:00,38.0,23.0,-100.00,SSW,200,7.0,10.0,52,-99.99,,,-99.99,,2013-01-09 21:03:00,
2013-01-09 14:13:00,38.0,23.0,-100.00,SSW,200,7.0,10.0,52,-99.99,,,-99.99,,2013-01-09 21:13:00,
2013-01-09 14:23:00,39.0,23.0,-100.00,SSW,205,9.0,11.0,52,-99.99,,,-99.99,,2013-01-09 21:23:00,
2013-01-09 14:33:00,40.0,24.0,-100.00,SW,225,11.0,16.0,51,-99.99,,,-99.99,,2013-01-09 21:33:00,
2013-01-09 14:43:00,41.0,23.0,-100.00,SW,215,12.0,14.0,49,-99.99,,,-99.99,,2013-01-09 21:43:00,
2013-01-09 14:53:00,41.0,23.0,-100.00,SW,215,12.0,14.0,49,-99.99,,,-99.99,,2013-01-09 21:53:00,
2013-01-09 15:03:00,41.0,23.0,-100.00,SSW,210,9.0,14.0,48,-99.99,,,-99.99,,2013-01-09 22:03:00,
2013-01-09 15:12:00,41.0,23.0,-100.00,SSW,210,9.0,14.0,48,-99.99,,,-99.99,,2013-01-09 22:12:00,
2013-01-09 15:23:00,40.0,22.0,-100.00,SSW,200,7.0,11.0,49,-99.99,,,-99.99,,2013-01-09 22:23:00,
2013-01-09 15:33:00,39.0,23.0,-100.00,South,185,9.0,11.0,52,-99.99,,,-99.99,,2013-01-09 22:33:00,
2013-01-09 15:43:00,38.0,23.0,-100.00,ESE,120,2.0,7.0,52,-99.99,,,-99.99,,2013-01-09 22:43:00,
2013-01-09 15:52:00,38.0,23.0,-100.00,ESE,120,2.0,7.0,52,-99.99,,,-99.99,,2013-01-09 22:52:00,
2013-01-09 16:02:00,38.0,23.0,-100.00,SSW,200,11.0,12.0,54,-99.99,,,-99.99,,2013-01-09 23:02:00,
2013-01-09 16:13:00,38.0,23.0,-100.00,SSW,200,11.0,12.0,54,-99.99,,,-99.99,,2013-01-09 23:13:00,
2013-01-09 16:22:00,39.0,23.0,-100.00,South,190,8.0,12.0,52,-99.99,,,-99.99,,2013-01-09 23:22:00,
2013-01-09 16:33:00,38.0,22.0,-100.00,South,175,7.0,9.0,52,-99.99,,,-99.99,,2013-01-09 23:33:00,
2013-01-09 16:43:00,38.0,23.0,-100.00,SSE,160,4.0,10.0,54,-99.99,,,-99.99,,2013-01-09 23:43:00,
2013-01-09 16:53:00,38.0,23.0,-100.00,SSE,160,4.0,10.0,54,-99.99,,,-99.99,,2013-01-09 23:53:00,
2013-01-09 17:03:00,37.0,23.0,-100.00,SSE,160,7.0,9.0,54,-99.99,,,-99.99,,2013-01-10 00:03:00,
2013-01-09 17:12:00,37.0,23.0,-100.00,SSE,160,7.0,9.0,54,-99.99,,,-99.99,,2013-01-10 00:12:00,
2013-01-09 17:22:00,35.0,23.0,-100.00,South,175,2.0,7.0,61,-99.99,,,-99.99,,2013-01-10 00:22:00,
2013-01-09 17:32:00,36.0,24.0,-100.00,SSE,160,13.0,16.0,61,-99.99,,,-99.99,,2013-01-10 00:32:00,
2013-01-09 17:42:00,36.0,24.0,-100.00,SSE,165,18.0,23.0,61,-99.99,,,-99.99,,2013-01-10 00:42:00,
2013-01-09 17:53:00,36.0,24.0,-100.00,SSE,165,18.0,23.0,61,-99.99,,,-99.99,,2013-01-10 00:53:00,
2013-01-09 18:02:00,35.0,24.0,-100.00,South,170,17.0,21.0,64,-99.99,,,-99.99,,2013-01-10 01:02:00,
2013-01-09 18:12:00,35.0,24.0,-100.00,South,170,17.0,21.0,64,-99.99,,,-99.99,,2013-01-10 01:12:00,
2013-01-09 18:22:00,35.0,24.0,-100.00,South,170,17.0,21.0,63,-99.99,,,-99.99,,2013-01-10 01:22:00,
2013-01-09 18:33:00,34.0,23.0,-100.00,South,190,12.0,17.0,64,-99.99,,,-99.99,,2013-01-10 01:33:00,
2013-01-09 18:43:00,33.0,23.0,-100.00,South,190,9.0,13.0,64,-99.99,,,-99.99,,2013-01-10 01:43:00,
2013-01-09 18:53:00,33.0,23.0,-100.00,South,190,9.0,13.0,64,-99.99,,,-99.99,,2013-01-10 01:53:00,
2013-01-09 19:03:00,33.0,22.0,-100.00,South,185,9.0,11.0,64,-99.99,,,-99.99,,2013-01-10 02:03:00,
2013-01-09 19:12:00,33.0,22.0,-100.00,South,185,9.0,11.0,64,-99.99,,,-99.99,,2013-01-10 02:12:00,
2013-01-09 19:22:00,33.0,22.0,-100.00,SSE,165,10.0,12.0,63,-99.99,,,-99.99,,2013-01-10 02:22:00,
2013-01-09 19:32:00,35.0,22.0,-100.00,South,175,8.0,11.0,57,-99.99,,,-99.99,,2013-01-10 02:32:00,
2013-01-09 19:42:00,35.0,22.0,-100.00,South,175,8.0,11.0,57,-99.99,,,-99.99,,2013-01-10 02:42:00,
2013-01-09 19:52:00,35.0,22.0,-100.00,South,175,8.0,11.0,57,-99.99,,,-99.99,,2013-01-10 02:52:00,
2013-01-09 20:02:00,31.0,20.0,-100.00,ESE,115,6.0,7.0,64,-99.99,,,-99.99,,2013-01-10 03:02:00,
2013-01-09 20:12:00,31.0,20.0,-100.00,ESE,115,6.0,7.0,64,-99.99,,,-99.99,,2013-01-10 03:12:00,
2013-01-09 20:22:00,30.0,20.0,-100.00,SSE,150,6.0,8.0,64,-99.99,,,-99.99,,2013-01-10 03:22:00,
2013-01-09 20:33:00,29.0,20.0,-100.00,ESE,120,1.0,5.0,66,-99.99,,,-99.99,,2013-01-10 03:33:00,
2013-01-09 20:42:00,30.0,21.0,-100.00,East,100,1.0,5.0,67,-99.99,,,-99.99,,2013-01-10 03:42:00,
2013-01-09 20:53:00,30.0,21.0,-100.00,East,100,1.0,5.0,67,-99.99,,,-99.99,,2013-01-10 03:53:00,
2013-01-09 21:02:00,31.0,21.0,-100.00,East,90,4.0,6.0,66,-99.99,,,-99.99,,2013-01-10 04:02:00,
2013-01-09 21:12:00,31.0,21.0,-100.00,East,90,4.0,6.0,66,-99.99,,,-99.99,,2013-01-10 04:12:00,
2013-01-09 21:22:00,29.0,20.0,-100.00,ESE,105,6.0,7.0,67,-99.99,,,-99.99,,2013-01-10 04:22:00,
2013-01-09 21:32:00,31.0,22.0,-100.00,SSE,160,9.0,10.0,69,-99.99,,,-99.99,,2013-01-10 04:32:00,
2013-01-09 21:42:00,32.0,22.0,-100.00,SSE,155,9.0,12.0,67,-99.99,,,-99.99,,2013-01-10 04:42:00,
2013-01-09 21:52:00,32.0,22.0,-100.00,SSE,155,9.0,12.0,67,-99.99,,,-99.99,,2013-01-10 04:52:00,
2013-01-09 22:03:00,31.0,22.0,-100.00,SSE,150,7.0,8.0,68,-99.99,,,-99.99,,2013-01-10 05:03:00,
2013-01-09 22:12:00,31.0,22.0,-100.00,SSE,150,7.0,8.0,68,-99.99,,,-99.99,,2013-01-10 05:12:00,
2013-01-09 22:22:00,31.0,22.0,-100.00,SSE,150,9.0,11.0,68,-99.99,,,-99.99,,2013-01-10 05:22:00,
2013-01-09 22:33:00,32.0,22.0,-100.00,SSE,155,10.0,12.0,68,-99.99,,,-99.99,,2013-01-10 05:33:00,
2013-01-09 22:42:00,31.0,23.0,-100.00,SSE,150,9.0,12.0,69,-99.99,,,-99.99,,2013-01-10 05:42:00,
2013-01-09 22:53:00,31.0,23.0,-100.00,SSE,150,9.0,12.0,69,-99.99,,,-99.99,,2013-01-10 05:53:00,
2013-01-09 23:02:00,32.0,23.0,-100.00,SSE,165,11.0,14.0,68,-99.99,,,-99.99,,2013-01-10 06:02:00,
2013-01-09 23:12:00,32.0,23.0,-100.00,SSE,165,11.0,14.0,68,-99.99,,,-99.99,,2013-01-10 06:12:00,
2013-01-09 23:22:00,32.0,23.0,-100.00,South,175,9.0,12.0,69,-99.99,,,-99.99,,2013-01-10 06:22:00,
2013-01-09 23:32:00,32.0,23.0,-100.00,South,185,9.0,10.0,69,-99.99,,,-99.99,,2013-01-10 06:32:00,
2013-01-09 23:42:00,31.0,23.0,-100.00,South,180,6.0,10.0,69,-99.99,,,-99.99,,2013-01-10 06:42:00,
2013-01-09 23:52:00,31.0,23.0,-100.00,South,180,6.0,10.0,69,-99.99,,,-99.99,,2013-01-10 06:52:00,